Time;durP1;ratioP1;P1;durP2;ratioP2;P2;SDS_P1;SDS_P2;PMS_P1;PMS_P2;Temp;Humidity;BMP_temperature;BMP_pressure;BME280_temperature;BME280_humidity;BME280_pressure;Samples;Min_cycle;Max_cycle;Signal;HPM_P1;HPM_P2
2023/01/03 00:00:15;;;;;;;0.40;0.40;;;8.10;99.90;7.70;100310;;;;589420;242;24046;-76
2023/01/03 00:02:43;;;;;;;0.50;0.50;;;8.10;99.90;7.70;100303;;;;574060;245;24120;-76
2023/01/03 00:05:11;;;;;;;0.70;0.70;;;8.10;99.90;7.70;100309;;;;595258;241;24038;-76
2023/01/03 00:07:39;;;;;;;1.60;0.67;;;8.10;99.90;7.70;100308;;;;595104;240;24091;-74
2023/01/03 00:10:07;;;;;;;2.23;0.57;;;8.10;99.90;7.70;100314;;;;570033;247;24161;-76
2023/01/03 00:12:34;;;;;;;0.67;0.63;;;8.10;99.90;7.70;100304;;;;583965;246;24098;-77
2023/01/03 00:15:05;;;;;;;1.40;0.87;;;8.10;99.90;7.70;100298;;;;577146;249;24135;-79
2023/01/03 00:17:30;;;;;;;0.40;0.40;;;8.20;99.90;7.70;100301;;;;585639;241;24086;-77
2023/01/03 00:19:58;;;;;;;1.13;0.60;;;8.20;99.90;7.80;100305;;;;593638;241;24077;-80
2023/01/03 00:22:27;;;;;;;0.63;0.63;;;8.20;99.90;7.80;100311;;;;582200;246;24089;-78
2023/01/03 00:24:55;;;;;;;0.40;0.40;;;8.20;99.90;7.80;100308;;;;573809;246;24167;-77
2023/01/03 00:27:23;;;;;;;0.50;0.50;;;8.20;99.90;7.80;100312;;;;582038;243;24109;-78
2023/01/03 00:29:51;;;;;;;0.60;0.60;;;8.20;99.90;7.80;100309;;;;582119;246;24097;-78
2023/01/03 00:32:19;;;;;;;0.63;0.63;;;8.20;99.90;7.80;100306;;;;581556;246;24128;-77
2023/01/03 00:34:47;;;;;;;0.67;0.67;;;8.20;99.90;7.70;100316;;;;581864;247;24078;-78
2023/01/03 00:37:15;;;;;;;0.83;0.40;;;8.20;99.90;7.70;100332;;;;561661;251;24100;-77
2023/01/03 00:39:43;;;;;;;0.70;0.70;;;8.20;99.90;7.70;100324;;;;561839;252;24124;-79
2023/01/03 00:42:14;;;;;;;0.50;0.50;;;8.10;99.90;7.70;100344;;;;574417;247;24117;-76
2023/01/03 00:44:43;;;;;;;0.40;0.40;;;8.10;99.90;7.70;100348;;;;570890;251;24139;-77
2023/01/03 00:47:07;;;;;;;0.53;0.53;;;8.10;99.90;7.70;100343;;;;594541;241;24083;-77
2023/01/03 00:49:38;;;;;;;1.30;0.67;;;8.10;99.90;7.70;100358;;;;581738;247;24063;-78
2023/01/03 00:52:06;;;;;;;2.30;0.70;;;8.10;99.90;7.70;100346;;;;582697;246;24112;-78
2023/01/03 00:54:30;;;;;;;0.80;0.80;;;8.10;99.90;7.60;100351;;;;582285;245;24162;-77
2023/01/03 00:56:58;;;;;;;0.53;0.50;;;8.00;99.90;7.50;100342;;;;584784;246;24074;-77
2023/01/03 00:59:26;;;;;;;0.43;0.40;;;7.90;99.90;7.30;100351;;;;584435;246;24141;-78
2023/01/03 01:01:54;;;;;;;0.83;0.20;;;7.80;99.90;7.20;100366;;;;584664;246;24116;-76
2023/01/03 01:04:22;;;;;;;0.40;0.40;;;7.70;99.90;7.20;100361;;;;574121;246;24156;-74
2023/01/03 01:06:53;;;;;;;1.00;0.43;;;7.60;99.90;7.20;100359;;;;576081;245;24095;-76
2023/01/03 01:09:21;;;;;;;0.40;0.40;;;7.60;99.90;7.10;100360;;;;572997;246;24102;-76
2023/01/03 01:11:52;;;;;;;0.30;0.30;;;7.60;99.90;7.10;100364;;;;574198;246;24119;-76
2023/01/03 01:14:19;;;;;;;0.33;0.33;;;7.60;99.90;7.10;100369;;;;563457;250;24114;-75
2023/01/03 01:16:50;;;;;;;1.43;0.70;;;7.50;99.90;7.10;100372;;;;582198;246;24097;-75
2023/01/03 01:19:18;;;;;;;0.60;0.60;;;7.50;99.90;7.10;100367;;;;570644;251;24138;-74
2023/01/03 01:21:45;;;;;;;0.60;0.60;;;7.50;99.90;7.00;100370;;;;586603;240;24061;-75
2023/01/03 01:24:17;;;;;;;0.70;0.70;;;7.40;99.90;6.90;100361;;;;571633;246;24108;-76
2023/01/03 01:26:41;;;;;;;1.73;0.60;;;7.40;99.90;6.80;100369;;;;572691;246;24146;-75
2023/01/03 01:29:09;;;;;;;0.57;0.57;;;7.20;99.90;6.70;100364;;;;583363;246;24091;-75
2023/01/03 01:31:37;;;;;;;9.90;0.97;;;7.20;99.90;6.70;100373;;;;574858;247;24089;-76
2023/01/03 01:34:05;;;;;;;1.13;0.60;;;7.10;99.90;6.60;100365;;;;583468;246;24135;-76
2023/01/03 01:36:36;;;;;;;0.60;0.60;;;7.10;99.90;6.50;100373;;;;570439;251;24111;-76
2023/01/03 01:39:02;;;;;;;0.77;0.77;;;6.90;99.90;6.50;100368;;;;580456;247;24173;-75
2023/01/03 01:44:52;;;;;;;0.50;0.50;;;6.90;99.90;6.50;100387;;;;550004;251;24137;-77
2023/01/03 01:47:50;;;;;;;1.77;0.43;;;6.90;99.90;6.60;100395;;;;558926;253;24126;-76
2023/01/03 01:50:21;;;;;;;2.10;0.60;;;7.00;99.90;6.60;100385;;;;573936;246;24114;-76
2023/01/03 01:52:57;;;;;;;1.20;1.00;;;7.10;99.90;6.60;100394;;;;561589;251;24150;-78
2023/01/03 01:55:30;;;;;;;1.57;1.00;;;7.10;99.90;6.60;100391;;;;584836;242;24169;-77
2023/01/03 01:58:01;;;;;;;2.20;0.60;;;7.00;99.90;6.60;100389;;;;585382;242;24066;-76
2023/01/03 02:00:27;;;;;;;0.83;0.83;;;6.90;99.90;6.50;100406;;;;571774;246;24143;-75
2023/01/03 02:02:56;;;;;;;1.40;0.77;;;6.90;99.90;6.50;100400;;;;561656;251;24111;-76
2023/01/03 02:05:23;;;;;;;0.80;0.80;;;6.90;99.90;6.50;100398;;;;595733;239;24544;-76
2023/01/03 02:07:51;;;;;;;1.47;0.83;;;6.90;99.90;6.50;100401;;;;563414;251;24118;-76
2023/01/03 02:10:43;;;;;;;1.03;0.93;;;6.90;99.90;6.50;100413;;;;595968;240;24078;-78
2023/01/03 02:13:14;;;;;;;2.40;0.57;;;6.90;99.90;6.50;100407;;;;594452;240;24087;-77
2023/01/03 02:15:59;;;;;;;1.57;1.00;;;6.90;99.90;6.40;100408;;;;595207;240;24072;-78
2023/01/03 02:18:42;;;;;;;1.00;0.80;;;6.90;99.90;6.30;100411;;;;587014;240;24057;-78
2023/01/03 02:21:37;;;;;;;1.93;1.50;;;6.70;99.90;6.10;100415;;;;591916;240;24056;-77
2023/01/03 02:24:38;;;;;;;1.13;0.70;;;6.60;99.90;6.00;100411;;;;586685;240;24062;-78
2023/01/03 02:27:54;;;;;;;0.80;0.70;;;6.50;99.90;5.90;100398;;;;592982;241;24062;-78
2023/01/03 02:30:31;;;;;;;2.23;0.70;;;6.40;99.90;5.80;100403;;;;591228;241;24089;-77
2023/01/03 02:33:10;;;;;;;0.30;0.30;;;6.30;99.90;5.80;100418;;;;585861;242;24076;-78
2023/01/03 02:36:18;;;;;;;0.80;0.80;;;6.20;99.90;5.80;100425;;;;585569;242;24124;-78
2023/01/03 02:39:03;;;;;;;0.83;0.83;;;6.20;99.90;5.70;100433;;;;585826;242;24111;-79
2023/01/03 02:41:44;;;;;;;2.87;0.90;;;6.20;99.90;5.70;100432;;;;594329;241;24077;-77
2023/01/03 02:44:33;;;;;;;2.37;0.90;;;6.10;99.90;5.60;100451;;;;595350;241;24114;-77
2023/01/03 02:47:07;;;;;;;2.60;1.17;;;6.10;99.90;5.50;100442;;;;586320;241;24059;-78
2023/01/03 02:49:38;;;;;;;0.43;0.43;;;6.00;99.90;5.50;100449;;;;586344;241;24064;-77
2023/01/03 02:52:05;;;;;;;2.43;0.83;;;6.00;99.90;5.50;100437;;;;570534;252;24119;-77
2023/01/03 02:54:57;;;;;;;1.23;0.60;;;6.00;99.90;5.50;100429;;;;561234;251;24134;-78
2023/01/03 02:57:25;;;;;;;3.30;0.60;;;6.00;99.90;5.50;100431;;;;587575;241;24084;-78
2023/01/03 03:00:01;;;;;;;0.80;0.80;;;6.00;99.90;5.40;100428;;;;571856;246;24099;-78
2023/01/03 03:02:31;;;;;;;1.93;0.70;;;6.00;99.90;5.40;100438;;;;577200;246;24115;-78
2023/01/03 03:04:57;;;;;;;2.00;1.50;;;5.90;99.90;5.40;100437;;;;562309;252;24173;-78
2023/01/03 03:07:32;;;;;;;1.50;1.00;;;5.90;99.90;5.30;100435;;;;582486;246;24072;-78
2023/01/03 03:15:34;;;;;;;3.03;0.87;;;5.80;99.90;5.20;100444;;;;594996;241;25090;-76
2023/01/03 03:18:02;;;;;;;4.60;1.10;;;5.70;99.90;5.20;100453;;;;573944;246;24247;-76
2023/01/03 03:26:07;;;;;;;2.27;1.40;;;5.80;99.90;5.40;100459;;;;573746;246;24079;-76
2023/01/03 03:28:35;;;;;;;4.27;0.70;;;5.80;99.90;5.30;100447;;;;573285;250;24102;-77
2023/01/03 03:31:27;;;;;;;3.23;0.83;;;5.80;99.90;5.40;100471;;;;562657;252;24135;-77
2023/01/03 03:34:17;;;;;;;1.47;0.93;;;5.90;99.90;5.40;100463;;;;580179;241;24076;-76
2023/01/03 03:37:04;;;;;;;0.60;0.60;;;5.90;99.90;5.40;100492;;;;573133;246;24216;-76
2023/01/03 03:45:40;;;;;;;1.50;0.90;;;6.00;99.90;5.50;100462;;;;562113;251;24166;-77
2023/01/03 03:48:22;;;;;;;16.03;1.30;;;5.90;99.90;5.40;100470;;;;581175;241;24049;-77
2023/01/03 03:51:05;;;;;;;6.33;1.00;;;5.90;99.90;5.40;100462;;;;585172;240;24069;-78
2023/01/03 03:53:33;;;;;;;0.40;0.40;;;5.90;99.90;5.40;100489;;;;585309;241;24069;-78
2023/01/03 03:56:03;;;;;;;1.70;1.10;;;5.90;99.90;5.40;100476;;;;569126;246;35130;-77
2023/01/03 03:58:34;;;;;;;2.33;0.90;;;5.90;99.90;5.40;100482;;;;584292;242;24095;-77
2023/01/03 04:01:02;;;;;;;1.17;0.90;;;5.90;99.90;5.40;100484;;;;593819;241;24124;-76
2023/01/03 04:03:33;;;;;;;1.93;0.87;;;5.90;99.90;5.40;100493;;;;595537;241;24112;-76
2023/01/03 04:06:00;;;;;;;2.00;0.50;;;5.90;99.90;5.40;100495;;;;562064;251;24149;-76
2023/01/03 04:08:28;;;;;;;0.30;0.20;;;5.90;99.90;5.50;100475;;;;586365;241;24178;-76
2023/01/03 04:11:04;;;;;;;2.50;0.77;;;6.00;99.90;5.50;100476;;;;595517;241;24170;-76
2023/01/03 04:13:24;;;;;;;0.20;0.20;;;6.00;99.90;5.50;100471;;;;585623;241;24116;-76
2023/01/03 04:15:52;;;;;;;5.03;0.83;;;6.00;99.90;5.50;100483;;;;571016;247;24130;-78
2023/01/03 04:18:20;;;;;;;0.60;0.60;;;6.00;99.90;5.40;100472;;;;582905;246;24091;-78
2023/01/03 04:20:48;;;;;;;0.23;0.23;;;5.90;99.90;5.40;100468;;;;582434;246;24095;-75
2023/01/03 04:23:19;;;;;;;4.17;0.70;;;5.90;99.90;5.30;100473;;;;582165;246;24097;-75
2023/01/03 04:25:48;;;;;;;1.70;0.70;;;5.80;99.90;5.30;100477;;;;560043;251;24222;-75
2023/01/03 04:28:13;;;;;;;0.40;0.40;;;5.80;99.90;5.30;100481;;;;563641;249;24198;-75
2023/01/03 04:30:42;;;;;;;0.70;0.67;;;5.80;99.90;5.30;100485;;;;595865;241;24070;-78
2023/01/03 04:33:10;;;;;;;0.30;0.30;;;5.80;99.90;5.30;100492;;;;573847;246;24108;-76
2023/01/03 04:35:38;;;;;;;1.37;0.90;;;5.80;99.90;5.30;100505;;;;582177;247;24130;-77
2023/01/03 04:38:05;;;;;;;0.10;0.10;;;5.80;99.90;5.40;100511;;;;582009;247;24095;-74
2023/01/03 04:40:34;;;;;;;1.20;0.70;;;5.90;99.90;5.50;100512;;;;581971;247;24074;-75
2023/01/03 04:45:48;;;;;;;0.40;0.40;;;5.90;99.90;5.50;100506;;;;581920;247;24089;-76
2023/01/03 04:48:15;;;;;;;1.03;0.70;;;6.00;99.90;5.50;100503;;;;571922;251;24122;-77
2023/01/03 04:50:52;;;;;;;0.40;0.40;;;6.00;99.90;5.50;100497;;;;594089;241;24069;-76
2023/01/03 04:53:20;;;;;;;1.90;0.60;;;6.00;99.90;5.50;100484;;;;595012;241;24071;-75
2023/01/03 04:55:51;;;;;;;1.60;0.43;;;6.00;99.90;5.40;100497;;;;595603;241;24065;-75
2023/01/03 04:58:16;;;;;;;2.65;0.82;;;5.90;99.90;5.30;100483;;;;567294;246;35148;-76
2023/01/03 05:00:49;;;;;;;0.73;0.40;;;5.80;99.90;5.30;100493;;;;570813;252;24128;-75
2023/01/03 05:03:13;;;;;;;0.60;0.60;;;5.80;99.90;5.20;100495;;;;576701;248;24123;-76
2023/01/03 05:05:40;;;;;;;1.10;0.60;;;5.70;99.90;5.10;100494;;;;574338;246;24104;-76
2023/01/03 05:08:08;;;;;;;2.47;1.10;;;5.70;99.90;5.00;100509;;;;582148;242;24126;-77
2023/01/03 05:10:39;;;;;;;2.63;0.50;;;5.60;99.90;5.00;100504;;;;574401;247;24093;-79
2023/01/03 05:13:07;;;;;;;2.43;0.73;;;5.50;99.90;5.00;100512;;;;571502;247;24087;-75
2023/01/03 05:15:39;;;;;;;0.67;0.67;;;5.50;99.90;5.00;100502;;;;562162;251;24184;-75
2023/01/03 05:18:04;;;;;;;5.60;1.33;;;5.50;99.90;5.00;100518;;;;561880;252;24145;-76
2023/01/03 05:26:06;;;;;;;1.10;0.80;;;5.50;99.90;4.90;100502;;;;570400;251;24149;-77
2023/01/03 05:28:34;;;;;;;4.22;0.98;;;5.40;99.90;4.90;100527;;;;566910;251;35330;-77
2023/01/03 05:31:01;;;;;;;1.83;1.07;;;5.40;99.90;4.90;100529;;;;572935;246;24093;-76
2023/01/03 05:33:29;;;;;;;0.80;0.63;;;5.40;99.90;4.90;100519;;;;576328;248;24095;-76
2023/01/03 05:35:57;;;;;;;1.13;0.83;;;5.40;99.90;4.80;100530;;;;577029;249;25195;-77
2023/01/03 05:38:25;;;;;;;1.83;0.77;;;5.30;99.90;4.80;100531;;;;594290;241;24054;-77
2023/01/03 05:40:53;;;;;;;2.23;0.50;;;5.30;99.90;4.80;100524;;;;570980;250;24260;-77
2023/01/03 05:43:25;;;;;;;5.50;1.07;;;5.30;99.90;4.70;100536;;;;596487;241;24074;-75
2023/01/03 05:45:53;;;;;;;5.37;0.73;;;5.20;99.90;4.70;100543;;;;595040;241;24097;-76
2023/01/03 05:48:17;;;;;;;3.70;0.80;;;5.20;99.90;4.60;100536;;;;580017;247;24162;-75
2023/01/03 05:50:48;;;;;;;7.83;0.50;;;5.10;99.90;4.60;100550;;;;563361;250;24122;-76
2023/01/03 05:53:13;;;;;;;3.37;0.67;;;5.10;99.90;4.50;100568;;;;574894;245;24102;-76
2023/01/03 05:55:41;;;;;;;4.53;0.70;;;5.10;99.90;4.50;100561;;;;595681;241;25112;-76
2023/01/03 05:58:09;;;;;;;1.33;0.90;;;5.10;99.90;4.50;100557;;;;570869;252;24130;-77
2023/01/03 06:00:37;;;;;;;4.23;1.50;;;5.00;99.90;4.50;100570;;;;586687;240;24050;-77
2023/01/03 06:03:08;;;;;;;3.30;0.70;;;5.00;99.90;4.50;100571;;;;595378;241;24060;-77
2023/01/03 06:05:33;;;;;;;3.07;0.50;;;5.00;99.90;4.50;100576;;;;585527;241;24131;-77
2023/01/03 06:08:01;;;;;;;2.73;0.93;;;5.00;99.90;4.50;100583;;;;595174;241;24077;-76
2023/01/03 06:10:29;;;;;;;0.50;0.50;;;5.00;99.90;4.60;100583;;;;595865;241;24094;-78
2023/01/03 06:12:56;;;;;;;2.70;1.10;;;5.10;99.90;4.60;100595;;;;595438;241;24053;-77
2023/01/03 06:15:24;;;;;;;0.90;0.90;;;5.10;99.90;4.60;100608;;;;582241;247;24106;-77
2023/01/03 06:17:57;;;;;;;0.93;0.73;;;5.10;99.90;4.60;100607;;;;572072;251;24185;-77
2023/01/03 06:20:23;;;;;;;2.67;0.70;;;5.10;99.90;4.60;100593;;;;580661;247;25132;-77
2023/01/03 06:22:54;;;;;;;0.50;0.50;;;5.10;99.90;4.50;100611;;;;582555;246;24177;-77
2023/01/03 06:25:19;;;;;;;1.13;0.80;;;5.10;99.90;4.50;100615;;;;566642;249;24097;-76
2023/01/03 06:27:46;;;;;;;2.27;0.70;;;5.10;99.90;4.50;100617;;;;576974;248;24102;-76
2023/01/03 06:30:15;;;;;;;4.10;1.27;;;5.00;99.90;4.50;100613;;;;575039;248;24084;-76
2023/01/03 06:32:43;;;;;;;1.50;0.73;;;5.00;99.90;4.50;100620;;;;571097;251;24203;-76
2023/01/03 06:35:11;;;;;;;6.47;0.80;;;4.90;99.90;4.40;100623;;;;595467;241;24064;-76
2023/01/03 06:37:43;;;;;;;2.90;0.90;;;4.90;99.90;4.40;100624;;;;586035;241;24074;-76
2023/01/03 06:40:08;;;;;;;6.63;1.10;;;4.90;99.90;4.40;100631;;;;585724;242;24141;-76
2023/01/03 06:42:38;;;;;;;5.33;1.60;;;4.90;99.90;4.30;100628;;;;586357;241;24067;-76
2023/01/03 06:53:24;;;;;;;6.07;1.30;;;4.90;99.90;4.50;100655;;;;577595;247;24094;-77
2023/01/03 06:55:52;;;;;;;5.53;1.07;;;5.00;99.90;4.50;100644;;;;580469;246;24106;-79
2023/01/03 06:58:19;;;;;;;0.70;0.67;;;5.00;99.90;4.50;100651;;;;581605;246;24127;-77
2023/01/03 07:00:48;;;;;;;1.13;0.70;;;5.00;99.90;4.40;100651;;;;576710;249;24094;-78
2023/01/03 07:03:16;;;;;;;0.57;0.57;;;4.90;99.90;4.40;100654;;;;560754;251;24116;-77
2023/01/03 07:05:44;;;;;;;2.23;0.93;;;5.00;99.90;4.40;100659;;;;572118;251;24205;-77
2023/01/03 07:08:15;;;;;;;1.80;0.73;;;4.90;99.90;4.40;100650;;;;577252;249;24163;-79
2023/01/03 07:10:40;;;;;;;1.03;0.80;;;4.90;99.90;4.40;100656;;;;570602;251;24149;-78
2023/01/03 07:15:54;;;;;;;3.33;1.40;;;4.90;99.90;4.40;100664;;;;590428;241;24057;-78
2023/01/03 07:18:26;;;;;;;3.50;1.37;;;4.90;99.90;4.40;100671;;;;595382;241;24057;-78
2023/01/03 07:20:53;;;;;;;6.45;2.05;;;5.00;99.90;4.50;100661;;;;589267;241;35132;-77
2023/01/03 07:23:18;;;;;;;9.93;1.47;;;5.00;99.90;4.40;100651;;;;585579;240;24099;-78
2023/01/03 07:25:46;;;;;;;4.03;0.70;;;5.00;99.90;4.50;100669;;;;582967;246;24139;-78
2023/01/03 07:28:14;;;;;;;1.17;1.07;;;5.00;99.90;4.50;100661;;;;582330;244;24171;-78
2023/01/03 07:30:46;;;;;;;4.43;1.20;;;5.00;99.90;4.50;100665;;;;582256;246;24107;-79
2023/01/03 07:33:11;;;;;;;5.47;1.53;;;5.00;99.90;4.50;100682;;;;572435;246;24099;-77
2023/01/03 07:35:40;;;;;;;2.50;1.40;;;5.00;99.90;4.50;100684;;;;566409;250;35353;-78
2023/01/03 07:38:10;;;;;;;2.57;1.00;;;5.00;99.90;4.50;100685;;;;572864;246;24097;-78
2023/01/03 07:40:35;;;;;;;0.60;0.60;;;5.00;99.90;4.50;100685;;;;564006;250;24141;-77
2023/01/03 07:45:50;;;;;;;3.27;1.23;;;5.00;99.90;4.50;100691;;;;574537;246;24093;-76
2023/01/03 07:48:18;;;;;;;4.23;1.33;;;5.00;99.90;4.40;100698;;;;570339;251;24093;-76
2023/01/03 07:50:50;;;;;;;1.37;0.63;;;5.00;99.90;4.40;100697;;;;585729;241;24044;-76
2023/01/03 07:53:15;;;;;;;6.53;1.13;;;4.90;99.90;4.40;100687;;;;585316;242;24111;-77
2023/01/03 07:55:42;;;;;;;4.67;1.23;;;4.90;99.90;4.40;100701;;;;594223;242;24058;-75
2023/01/03 07:58:10;;;;;;;2.47;0.97;;;4.90;99.90;4.40;100692;;;;572061;246;24148;-78
2023/01/03 08:00:38;;;;;;;1.23;0.33;;;4.90;99.90;4.40;100706;;;;581976;246;24109;-76
2023/01/03 08:03:06;;;;;;;4.43;1.10;;;4.90;99.90;4.40;100716;;;;562798;249;24126;-75
2023/01/03 08:05:37;;;;;;;1.03;0.90;;;4.90;99.90;4.40;100720;;;;563557;251;24129;-76
2023/01/03 08:08:02;;;;;;;1.37;0.80;;;4.90;99.90;4.50;100714;;;;570482;247;24134;-75
2023/01/03 08:13:18;;;;;;;2.77;0.80;;;5.10;99.90;4.80;100736;;;;571315;251;24122;-79
2023/01/03 08:15:56;;;;;;;8.50;1.40;;;5.20;99.90;4.90;100730;;;;595768;240;24074;-79
2023/01/03 08:18:23;;;;;;;2.93;1.20;;;5.40;99.90;5.00;100734;;;;586038;241;24057;-77
2023/01/03 08:20:53;;;;;;;6.63;1.37;;;5.50;99.90;5.10;100737;;;;595564;241;24060;-76
2023/01/03 08:23:18;;;;;;;2.93;1.27;;;5.60;99.90;5.30;100741;;;;571477;247;24136;-78
2023/01/03 08:25:46;;;;;;;6.70;1.07;;;5.70;99.90;5.40;100736;;;;595327;241;24053;-78
2023/01/03 08:28:14;;;;;;;1.27;1.00;;;5.90;99.90;5.60;100749;;;;594841;241;24083;-78
2023/01/03 08:30:48;;;;;;;6.87;1.73;;;6.10;99.90;5.80;100752;;;;583196;246;24082;-78
2023/01/03 08:33:16;;;;;;;3.63;1.57;;;6.30;99.90;5.90;100750;;;;563344;251;24138;-78
2023/01/03 08:35:43;;;;;;;2.20;0.87;;;6.40;99.90;6.00;100760;;;;595405;238;24060;-77
2023/01/03 08:38:11;;;;;;;1.57;0.80;;;6.50;99.90;6.00;100768;;;;585641;241;24093;-78
2023/01/03 08:40:39;;;;;;;7.40;0.93;;;6.60;99.90;6.10;100775;;;;581242;246;24149;-78
2023/01/03 08:43:07;;;;;;;2.53;0.77;;;6.60;99.90;6.10;100777;;;;594557;241;24082;-76
2023/01/03 08:45:35;;;;;;;1.10;0.70;;;6.70;99.90;6.20;100787;;;;595150;241;24054;-77
2023/01/03 08:48:03;;;;;;;6.37;1.03;;;6.70;99.90;6.20;100777;;;;595148;241;24058;-77
2023/01/03 08:50:34;;;;;;;4.27;1.20;;;6.70;99.90;6.20;100787;;;;569241;251;24205;-77
2023/01/03 08:53:00;;;;;;;1.07;1.00;;;6.80;99.90;6.30;100782;;;;560896;252;24194;-76
2023/01/03 08:55:27;;;;;;;1.50;0.70;;;6.70;99.90;6.30;100797;;;;595129;241;24092;-76
2023/01/03 08:57:58;;;;;;;2.33;1.30;;;6.80;99.90;6.40;100799;;;;595122;242;24066;-77
2023/01/03 09:00:24;;;;;;;2.33;1.40;;;6.80;99.90;6.40;100796;;;;594007;241;24050;-75
2023/01/03 09:02:52;;;;;;;1.77;1.10;;;6.90;99.90;6.50;100796;;;;595040;242;25099;-76
2023/01/03 09:05:20;;;;;;;1.03;1.00;;;6.90;99.90;6.50;100802;;;;561651;252;24096;-77
2023/01/03 09:07:48;;;;;;;5.53;1.03;;;7.00;99.90;6.50;100794;;;;595348;241;24155;-78
2023/01/03 09:10:16;;;;;;;3.97;1.03;;;6.90;99.90;6.50;100803;;;;594561;242;24072;-76
2023/01/03 09:12:44;;;;;;;2.13;0.90;;;7.00;99.90;6.60;100797;;;;594962;241;24079;-79
2023/01/03 09:15:12;;;;;;;3.83;0.73;;;7.10;99.90;6.70;100812;;;;595825;239;24036;-78
2023/01/03 09:17:44;;;;;;;1.60;0.90;;;7.10;99.90;6.70;100816;;;;584421;246;24094;-78
2023/01/03 09:20:11;;;;;;;0.90;0.90;;;7.20;99.90;6.70;100813;;;;584312;246;24132;-75
2023/01/03 09:22:39;;;;;;;2.93;1.23;;;7.20;99.90;6.80;100818;;;;586512;240;24046;-76
2023/01/03 09:25:10;;;;;;;2.57;1.07;;;7.20;99.90;6.80;100827;;;;586786;241;24073;-77
2023/01/03 09:27:35;;;;;;;6.00;1.40;;;7.20;99.90;6.70;100829;;;;585957;240;24060;-77
2023/01/03 09:30:03;;;;;;;3.30;0.90;;;7.20;99.90;6.70;100828;;;;586891;240;24034;-75
2023/01/03 09:32:30;;;;;;;1.27;1.17;;;7.20;99.90;6.80;100827;;;;592017;241;24104;-77
2023/01/03 09:34:58;;;;;;;1.90;1.20;;;7.30;99.90;6.80;100826;;;;583510;246;24081;-77
2023/01/03 09:37:26;;;;;;;4.77;1.33;;;7.30;99.90;6.80;100823;;;;583001;246;24111;-78
2023/01/03 09:39:54;;;;;;;1.93;0.67;;;7.30;99.90;6.80;100831;;;;595539;241;24123;-76
2023/01/03 09:45:08;;;;;;;3.13;0.87;;;7.20;99.90;6.70;100830;;;;595647;240;24075;-77
2023/01/03 09:47:36;;;;;;;8.60;1.20;;;7.20;99.90;6.80;100832;;;;572520;246;24107;-76
2023/01/03 09:50:04;;;;;;;3.00;1.07;;;7.20;99.90;6.80;100830;;;;573349;246;25147;-76
2023/01/03 10:04:05;;;;;;;3.80;1.50;;;7.50;99.90;6.90;100843;;;;576459;248;24081;-76
2023/01/03 10:06:49;;;;;;;3.00;1.50;;;7.40;99.90;6.80;100835;;;;595558;241;24107;-76
2023/01/03 10:09:22;;;;;;;2.23;1.17;;;7.20;99.90;6.80;100847;;;;590950;239;24070;-77
2023/01/03 10:12:02;;;;;;;6.90;1.40;;;7.20;99.90;6.70;100854;;;;576163;241;24070;-76
2023/01/03 10:15:00;;;;;;;2.97;1.30;;;7.20;99.90;6.70;100848;;;;585655;242;24081;-76
2023/01/03 10:17:46;;;;;;;1.67;0.90;;;7.20;99.90;6.70;100852;;;;592319;242;24050;-77
2023/01/03 10:20:38;;;;;;;7.97;1.50;;;7.20;99.90;6.80;100852;;;;585381;242;24060;-76
2023/01/03 10:23:06;;;;;;;2.67;1.00;;;7.20;99.90;6.60;100864;;;;586073;242;25105;-77
2023/01/03 10:25:34;;;;;;;5.13;1.50;;;7.10;99.90;6.40;100849;;;;562445;251;24135;-76
2023/01/03 10:28:02;;;;;;;1.80;1.23;;;6.90;99.90;6.20;100848;;;;562959;250;24140;-77
2023/01/03 10:31:00;;;;;;;3.40;1.40;;;6.70;99.90;5.90;100857;;;;584708;241;24090;-77
2023/01/03 10:33:34;;;;;;;1.60;1.23;;;6.50;99.90;5.80;100856;;;;586454;241;24061;-76
2023/01/03 10:36:01;;;;;;;1.90;0.90;;;6.30;99.90;5.70;100856;;;;562767;250;24239;-76
2023/01/03 10:38:31;;;;;;;2.03;0.87;;;6.20;99.90;5.70;100859;;;;571175;251;24102;-79
2023/01/03 10:41:03;;;;;;;3.93;1.10;;;6.20;99.90;5.70;100869;;;;571100;251;24111;-76
2023/01/03 10:43:39;;;;;;;3.40;0.90;;;6.10;99.90;5.70;100859;;;;594940;241;24113;-78
2023/01/03 10:46:20;;;;;;;5.33;1.80;;;6.10;99.90;5.70;100866;;;;585237;241;24082;-78
2023/01/03 10:48:47;;;;;;;7.20;1.67;;;6.20;99.90;5.90;100877;;;;594989;241;24078;-75
2023/01/03 10:51:57;;;;;;;3.37;1.73;;;6.30;99.90;6.00;100869;;;;585664;240;24110;-77
2023/01/03 10:54:33;;;;;;;3.20;1.03;;;6.50;99.90;6.20;100874;;;;572123;246;24136;-76
2023/01/03 10:57:01;;;;;;;3.50;1.50;;;6.60;99.90;6.20;100861;;;;567375;246;24157;-76
2023/01/03 10:59:29;;;;;;;4.27;1.10;;;6.70;99.90;6.20;100878;;;;582108;246;24102;-76
2023/01/03 11:02:13;;;;;;;3.70;1.27;;;6.70;99.90;6.20;100884;;;;563088;250;24154;-77
2023/01/03 11:04:40;;;;;;;1.87;1.23;;;6.80;99.90;6.30;100874;;;;561450;252;24113;-76
2023/01/03 11:07:10;;;;;;;7.43;1.40;;;6.70;99.90;6.30;100883;;;;595546;241;24047;-77
2023/01/03 11:09:54;;;;;;;4.77;1.77;;;6.80;99.90;6.40;100887;;;;572448;246;24095;-75
2023/01/03 11:12:43;;;;;;;5.87;1.73;;;6.80;99.90;6.50;100888;;;;560916;252;24147;-77
2023/01/03 11:15:20;;;;;;;6.93;1.30;;;7.00;99.90;6.50;100885;;;;561541;252;24187;-77
2023/01/03 11:18:00;;;;;;;4.47;1.00;;;7.00;99.90;6.60;100891;;;;582954;246;24087;-77
2023/01/03 11:20:46;;;;;;;0.80;0.80;;;7.00;99.90;6.70;100887;;;;591881;240;24087;-75
2023/01/03 11:23:28;;;;;;;2.00;1.03;;;7.10;99.90;6.80;100894;;;;561432;252;24130;-77
2023/01/03 11:26:28;;;;;;;4.27;1.40;;;7.40;99.90;6.90;100895;;;;572300;248;24097;-77
2023/01/03 11:29:17;;;;;;;1.03;0.70;;;7.40;99.90;6.90;100903;;;;573378;246;24115;-77
2023/01/03 11:32:04;;;;;;;7.30;1.77;;;7.40;99.90;6.90;100905;;;;592113;242;24034;-76
2023/01/03 11:34:46;;;;;;;7.20;1.97;;;7.40;99.90;7.00;100901;;;;573475;246;24121;-77
2023/01/03 11:37:17;;;;;;;3.00;1.50;;;7.50;99.90;7.10;100913;;;;573170;247;24102;-76
2023/01/03 11:40:17;;;;;;;4.27;1.27;;;7.60;99.90;7.10;100919;;;;572235;250;24167;-77
2023/01/03 11:42:45;;;;;;;3.50;1.70;;;7.60;99.90;7.10;100929;;;;573139;250;24181;-77
2023/01/03 11:45:34;;;;;;;1.07;0.87;;;7.60;99.90;7.20;100923;;;;562618;251;24122;-77
2023/01/03 11:48:39;;;;;;;3.63;1.43;;;7.70;99.90;7.30;100915;;;;593259;241;24078;-78
2023/01/03 11:51:10;;;;;;;2.60;1.63;;;7.70;99.90;7.30;100929;;;;586286;241;24115;-78
2023/01/03 11:53:37;;;;;;;4.87;1.95;;;7.80;99.90;7.20;100933;;;;557630;250;35545;-78
2023/01/03 11:56:23;;;;;;;2.67;1.10;;;7.70;99.90;7.10;100934;;;;570960;251;24169;-78
2023/01/03 11:59:19;;;;;;;7.43;1.53;;;7.60;99.90;6.90;100932;;;;586782;241;24074;-77
2023/01/03 12:02:17;;;;;;;5.60;1.33;;;7.50;99.90;6.80;100930;;;;585815;241;24073;-79
2023/01/03 12:05:14;;;;;;;3.63;1.00;;;7.40;99.90;6.80;100924;;;;585623;241;24058;-78
2023/01/03 12:08:00;;;;;;;3.33;1.23;;;7.30;99.90;7.00;100925;;;;586209;241;24114;-78
2023/01/03 12:10:51;;;;;;;3.17;1.23;;;7.40;99.90;7.00;100930;;;;595333;240;24083;-79
2023/01/03 12:13:40;;;;;;;3.93;1.50;;;7.50;99.90;7.10;100931;;;;584910;241;24062;-76
2023/01/03 12:16:15;;;;;;;4.20;1.33;;;7.70;99.90;7.20;100933;;;;583492;242;24057;-76
2023/01/03 12:18:54;;;;;;;1.03;1.03;;;7.60;99.90;7.20;100942;;;;593503;241;24126;-76
2023/01/03 12:21:40;;;;;;;5.90;2.13;;;7.70;99.90;7.10;100942;;;;572135;249;46092;-75
2023/01/03 12:24:32;;;;;;;2.97;1.73;;;7.60;99.90;7.10;100946;;;;582831;241;24105;-76
2023/01/03 12:27:34;;;;;;;2.73;1.63;;;7.60;99.90;7.10;100947;;;;572776;246;24209;-76
2023/01/03 12:30:34;;;;;;;2.97;1.57;;;7.60;99.90;7.20;100956;;;;539513;261;24179;-75
2023/01/03 12:33:20;;;;;;;3.00;1.30;;;7.70;99.90;7.20;100954;;;;574364;246;24105;-76
2023/01/03 12:35:48;;;;;;;4.20;1.87;;;7.70;99.90;7.20;100957;;;;559182;251;35437;-77
2023/01/03 12:38:16;;;;;;;3.63;2.13;;;7.70;99.90;7.10;100955;;;;571058;251;24120;-77
2023/01/03 12:41:06;;;;;;;4.27;2.60;;;7.60;99.90;7.00;100960;;;;561738;252;24159;-76
2023/01/03 12:43:33;;;;;;;3.23;1.73;;;7.60;99.90;7.00;100975;;;;585154;241;24055;-76
2023/01/03 12:46:03;;;;;;;3.87;1.43;;;7.50;99.90;6.90;100972;;;;585969;242;24075;-76
2023/01/03 12:48:49;;;;;;;3.87;1.67;;;7.40;99.90;6.90;100968;;;;583020;242;24105;-76